sensor_id;sensor_type;location;lat;lon;timestamp;P1;durP1;ratioP1;P2;durP2;ratioP2
30519;SDS011;17300;50.374;8.006;2023-02-01T00:00:09;2.57;;;2.37;;
30519;SDS011;17300;50.374;8.006;2023-02-01T00:02:37;2.50;;;2.23;;
30519;SDS011;17300;50.374;8.006;2023-02-01T00:05:06;2.57;;;2.07;;
30519;SDS011;17300;50.374;8.006;2023-02-01T00:07:34;2.70;;;2.50;;
30519;SDS011;17300;50.374;8.006;2023-02-01T00:10:01;2.70;;;2.40;;
30519;SDS011;17300;50.374;8.006;2023-02-01T00:12:29;2.47;;;2.27;;
30519;SDS011;17300;50.374;8.006;2023-02-01T00:14:55;2.47;;;2.27;;
30519;SDS011;17300;50.374;8.006;2023-02-01T00:17:22;2.70;;;2.50;;
30519;SDS011;17300;50.374;8.006;2023-02-01T00:19:49;2.47;;;2.27;;
30519;SDS011;17300;50.374;8.006;2023-02-01T00:22:16;3.37;;;2.40;;
30519;SDS011;17300;50.374;8.006;2023-02-01T00:24:44;3.63;;;2.30;;
30519;SDS011;17300;50.374;8.006;2023-02-01T00:27:10;2.40;;;2.20;;
30519;SDS011;17300;50.374;8.006;2023-02-01T00:29:42;2.67;;;2.27;;
30519;SDS011;17300;50.374;8.006;2023-02-01T00:32:09;2.47;;;2.27;;
30519;SDS011;17300;50.374;8.006;2023-02-01T00:34:36;2.50;;;2.30;;
30519;SDS011;17300;50.374;8.006;2023-02-01T00:37:03;2.40;;;2.20;;
30519;SDS011;17300;50.374;8.006;2023-02-01T00:39:29;2.60;;;2.40;;
30519;SDS011;17300;50.374;8.006;2023-02-01T00:41:57;2.37;;;2.17;;
30519;SDS011;17300;50.374;8.006;2023-02-01T00:44:25;2.13;;;2.03;;
30519;SDS011;17300;50.374;8.006;2023-02-01T00:46:52;2.27;;;2.07;;
30519;SDS011;17300;50.374;8.006;2023-02-01T00:49:19;2.43;;;2.20;;
30519;SDS011;17300;50.374;8.006;2023-02-01T00:51:46;2.30;;;2.10;;
30519;SDS011;17300;50.374;8.006;2023-02-01T00:54:13;2.23;;;2.03;;
30519;SDS011;17300;50.374;8.006;2023-02-01T00:56:40;2.30;;;2.10;;
30519;SDS011;17300;50.374;8.006;2023-02-01T00:59:10;2.30;;;2.10;;
30519;SDS011;17300;50.374;8.006;2023-02-01T01:01:37;3.63;;;1.90;;
30519;SDS011;17300;50.374;8.006;2023-02-01T01:04:04;1.80;;;1.70;;
30519;SDS011;17300;50.374;8.006;2023-02-01T01:06:31;2.10;;;1.90;;
30519;SDS011;17300;50.374;8.006;2023-02-01T01:09:00;1.83;;;1.70;;
30519;SDS011;17300;50.374;8.006;2023-02-01T01:11:30;2.30;;;2.00;;
30519;SDS011;17300;50.374;8.006;2023-02-01T01:13:59;1.87;;;1.70;;
30519;SDS011;17300;50.374;8.006;2023-02-01T01:16:27;2.10;;;1.70;;
30519;SDS011;17300;50.374;8.006;2023-02-01T01:18:55;1.63;;;1.53;;
30519;SDS011;17300;50.374;8.006;2023-02-01T01:21:22;2.90;;;1.90;;
30519;SDS011;17300;50.374;8.006;2023-02-01T01:23:49;1.70;;;1.60;;
30519;SDS011;17300;50.374;8.006;2023-02-01T01:26:17;1.80;;;1.70;;
30519;SDS011;17300;50.374;8.006;2023-02-01T01:28:45;2.23;;;1.63;;
30519;SDS011;17300;50.374;8.006;2023-02-01T01:31:12;2.23;;;1.73;;
30519;SDS011;17300;50.374;8.006;2023-02-01T01:33:41;3.60;;;1.87;;
30519;SDS011;17300;50.374;8.006;2023-02-01T01:36:09;2.17;;;1.93;;
30519;SDS011;17300;50.374;8.006;2023-02-01T01:38:37;2.43;;;2.00;;
30519;SDS011;17300;50.374;8.006;2023-02-01T01:41:04;5.93;;;2.03;;
30519;SDS011;17300;50.374;8.006;2023-02-01T01:43:47;2.70;;;2.10;;
30519;SDS011;17300;50.374;8.006;2023-02-01T01:46:16;1.80;;;1.70;;
30519;SDS011;17300;50.374;8.006;2023-02-01T01:48:45;2.53;;;2.00;;
30519;SDS011;17300;50.374;8.006;2023-02-01T01:51:14;2.40;;;2.20;;
30519;SDS011;17300;50.374;8.006;2023-02-01T01:53:43;2.30;;;2.10;;
30519;SDS011;17300;50.374;8.006;2023-02-01T01:56:13;2.20;;;2.00;;
30519;SDS011;17300;50.374;8.006;2023-02-01T01:58:41;2.47;;;2.27;;
30519;SDS011;17300;50.374;8.006;2023-02-01T02:01:08;3.03;;;2.10;;
30519;SDS011;17300;50.374;8.006;2023-02-01T02:03:35;2.53;;;1.93;;
30519;SDS011;17300;50.374;8.006;2023-02-01T02:06:08;2.27;;;2.07;;
30519;SDS011;17300;50.374;8.006;2023-02-01T02:08:40;2.67;;;2.00;;
30519;SDS011;17300;50.374;8.006;2023-02-01T02:11:07;2.63;;;2.17;;
30519;SDS011;17300;50.374;8.006;2023-02-01T02:13:36;2.77;;;2.30;;
30519;SDS011;17300;50.374;8.006;2023-02-01T02:22:42;2.03;;;1.83;;
30519;SDS011;17300;50.374;8.006;2023-02-01T02:28:33;2.77;;;2.00;;
30519;SDS011;17300;50.374;8.006;2023-02-01T02:31:35;4.37;;;2.17;;
30519;SDS011;17300;50.374;8.006;2023-02-01T02:34:23;2.57;;;1.93;;
30519;SDS011;17300;50.374;8.006;2023-02-01T02:36:55;2.13;;;1.63;;
30519;SDS011;17300;50.374;8.006;2023-02-01T02:39:33;4.13;;;2.00;;
30519;SDS011;17300;50.374;8.006;2023-02-01T02:42:12;3.77;;;1.90;;
30519;SDS011;17300;50.374;8.006;2023-02-01T02:45:02;2.13;;;1.93;;
30519;SDS011;17300;50.374;8.006;2023-02-01T02:47:54;3.77;;;1.80;;
30519;SDS011;17300;50.374;8.006;2023-02-01T02:50:26;3.50;;;2.03;;
30519;SDS011;17300;50.374;8.006;2023-02-01T02:53:16;2.20;;;1.60;;
30519;SDS011;17300;50.374;8.006;2023-02-01T02:56:02;3.10;;;1.67;;
30519;SDS011;17300;50.374;8.006;2023-02-01T02:58:49;3.20;;;1.87;;
30519;SDS011;17300;50.374;8.006;2023-02-01T03:01:35;2.93;;;1.87;;
30519;SDS011;17300;50.374;8.006;2023-02-01T03:04:20;2.43;;;1.67;;
30519;SDS011;17300;50.374;8.006;2023-02-01T03:06:49;3.33;;;2.10;;
30519;SDS011;17300;50.374;8.006;2023-02-01T03:09:19;2.53;;;1.70;;
30519;SDS011;17300;50.374;8.006;2023-02-01T03:11:51;3.20;;;1.70;;
30519;SDS011;17300;50.374;8.006;2023-02-01T03:14:42;5.53;;;2.07;;
30519;SDS011;17300;50.374;8.006;2023-02-01T03:17:11;3.43;;;1.80;;
30519;SDS011;17300;50.374;8.006;2023-02-01T03:19:42;3.93;;;1.90;;
30519;SDS011;17300;50.374;8.006;2023-02-01T03:22:15;3.23;;;1.87;;
30519;SDS011;17300;50.374;8.006;2023-02-01T03:24:45;3.50;;;2.00;;
30519;SDS011;17300;50.374;8.006;2023-02-01T03:27:14;2.93;;;1.80;;
30519;SDS011;17300;50.374;8.006;2023-02-01T03:29:44;3.40;;;1.73;;
30519;SDS011;17300;50.374;8.006;2023-02-01T03:32:14;3.87;;;1.90;;
30519;SDS011;17300;50.374;8.006;2023-02-01T03:34:41;1.90;;;1.63;;
30519;SDS011;17300;50.374;8.006;2023-02-01T03:37:09;4.50;;;1.60;;
30519;SDS011;17300;50.374;8.006;2023-02-01T03:39:39;3.63;;;2.00;;
30519;SDS011;17300;50.374;8.006;2023-02-01T03:42:12;3.47;;;1.80;;
30519;SDS011;17300;50.374;8.006;2023-02-01T03:44:44;3.20;;;1.60;;
30519;SDS011;17300;50.374;8.006;2023-02-01T03:47:15;5.00;;;1.50;;
30519;SDS011;17300;50.374;8.006;2023-02-01T03:49:46;3.50;;;1.60;;
30519;SDS011;17300;50.374;8.006;2023-02-01T03:52:16;2.47;;;1.60;;
30519;SDS011;17300;50.374;8.006;2023-02-01T03:54:48;4.80;;;1.77;;
30519;SDS011;17300;50.374;8.006;2023-02-01T03:57:17;1.90;;;1.50;;
30519;SDS011;17300;50.374;8.006;2023-02-01T03:59:49;3.47;;;1.80;;
30519;SDS011;17300;50.374;8.006;2023-02-01T04:02:16;2.97;;;1.77;;
30519;SDS011;17300;50.374;8.006;2023-02-01T04:04:42;2.67;;;1.50;;
30519;SDS011;17300;50.374;8.006;2023-02-01T04:07:10;2.20;;;1.57;;
30519;SDS011;17300;50.374;8.006;2023-02-01T04:09:37;4.77;;;1.80;;
30519;SDS011;17300;50.374;8.006;2023-02-01T04:12:05;3.67;;;1.77;;
30519;SDS011;17300;50.374;8.006;2023-02-01T04:14:32;4.83;;;1.67;;
30519;SDS011;17300;50.374;8.006;2023-02-01T04:16:58;3.43;;;1.57;;
30519;SDS011;17300;50.374;8.006;2023-02-01T04:19:25;2.83;;;1.60;;
30519;SDS011;17300;50.374;8.006;2023-02-01T04:21:51;2.90;;;1.53;;
30519;SDS011;17300;50.374;8.006;2023-02-01T04:24:18;2.93;;;1.67;;
30519;SDS011;17300;50.374;8.006;2023-02-01T04:26:45;3.73;;;1.70;;
30519;SDS011;17300;50.374;8.006;2023-02-01T04:29:13;4.20;;;1.63;;
30519;SDS011;17300;50.374;8.006;2023-02-01T04:31:39;3.77;;;1.73;;
30519;SDS011;17300;50.374;8.006;2023-02-01T04:34:06;3.87;;;1.50;;
30519;SDS011;17300;50.374;8.006;2023-02-01T04:36:33;4.23;;;1.70;;
30519;SDS011;17300;50.374;8.006;2023-02-01T04:38:59;2.67;;;1.70;;
30519;SDS011;17300;50.374;8.006;2023-02-01T04:41:26;2.17;;;1.30;;
30519;SDS011;17300;50.374;8.006;2023-02-01T04:43:54;6.13;;;1.87;;
30519;SDS011;17300;50.374;8.006;2023-02-01T04:46:22;4.53;;;1.60;;
30519;SDS011;17300;50.374;8.006;2023-02-01T04:48:48;4.10;;;1.57;;
30519;SDS011;17300;50.374;8.006;2023-02-01T04:51:15;1.67;;;1.10;;
30519;SDS011;17300;50.374;8.006;2023-02-01T04:53:43;4.80;;;1.53;;
30519;SDS011;17300;50.374;8.006;2023-02-01T04:56:09;2.57;;;1.50;;
30519;SDS011;17300;50.374;8.006;2023-02-01T04:58:36;4.40;;;1.60;;
30519;SDS011;17300;50.374;8.006;2023-02-01T05:01:03;3.30;;;1.60;;
30519;SDS011;17300;50.374;8.006;2023-02-01T05:03:31;3.10;;;1.37;;
30519;SDS011;17300;50.374;8.006;2023-02-01T05:05:58;3.53;;;1.40;;
30519;SDS011;17300;50.374;8.006;2023-02-01T05:08:25;4.70;;;1.90;;
30519;SDS011;17300;50.374;8.006;2023-02-01T05:10:53;5.90;;;1.60;;
30519;SDS011;17300;50.374;8.006;2023-02-01T05:13:20;4.33;;;1.87;;
30519;SDS011;17300;50.374;8.006;2023-02-01T05:16:05;3.43;;;1.60;;
30519;SDS011;17300;50.374;8.006;2023-02-01T05:18:33;3.93;;;2.00;;
30519;SDS011;17300;50.374;8.006;2023-02-01T05:21:00;5.97;;;2.00;;
30519;SDS011;17300;50.374;8.006;2023-02-01T05:23:27;6.23;;;2.13;;
30519;SDS011;17300;50.374;8.006;2023-02-01T05:25:57;3.53;;;1.90;;
30519;SDS011;17300;50.374;8.006;2023-02-01T05:28:24;4.63;;;1.90;;
30519;SDS011;17300;50.374;8.006;2023-02-01T05:30:51;5.43;;;2.23;;
30519;SDS011;17300;50.374;8.006;2023-02-01T05:33:17;3.57;;;2.07;;
30519;SDS011;17300;50.374;8.006;2023-02-01T05:35:45;4.50;;;2.10;;
30519;SDS011;17300;50.374;8.006;2023-02-01T05:38:12;4.27;;;2.40;;
30519;SDS011;17300;50.374;8.006;2023-02-01T05:40:39;4.37;;;1.90;;
30519;SDS011;17300;50.374;8.006;2023-02-01T05:43:05;7.30;;;2.50;;
30519;SDS011;17300;50.374;8.006;2023-02-01T05:45:32;5.40;;;2.10;;
30519;SDS011;17300;50.374;8.006;2023-02-01T05:47:59;5.70;;;2.10;;
30519;SDS011;17300;50.374;8.006;2023-02-01T05:50:25;4.40;;;2.07;;
30519;SDS011;17300;50.374;8.006;2023-02-01T05:52:53;2.87;;;1.43;;
30519;SDS011;17300;50.374;8.006;2023-02-01T05:55:20;3.90;;;2.00;;
30519;SDS011;17300;50.374;8.006;2023-02-01T05:57:46;5.23;;;2.53;;
30519;SDS011;17300;50.374;8.006;2023-02-01T06:00:13;4.87;;;3.10;;
30519;SDS011;17300;50.374;8.006;2023-02-01T06:02:40;9.10;;;3.03;;
30519;SDS011;17300;50.374;8.006;2023-02-01T06:05:07;4.97;;;2.10;;
30519;SDS011;17300;50.374;8.006;2023-02-01T06:07:34;4.20;;;2.47;;
30519;SDS011;17300;50.374;8.006;2023-02-01T06:10:02;4.57;;;2.80;;
30519;SDS011;17300;50.374;8.006;2023-02-01T06:12:29;6.13;;;3.07;;
30519;SDS011;17300;50.374;8.006;2023-02-01T06:14:56;7.47;;;3.50;;
30519;SDS011;17300;50.374;8.006;2023-02-01T06:17:23;6.87;;;3.50;;
30519;SDS011;17300;50.374;8.006;2023-02-01T06:19:50;6.30;;;3.33;;
30519;SDS011;17300;50.374;8.006;2023-02-01T06:22:17;7.90;;;3.63;;
30519;SDS011;17300;50.374;8.006;2023-02-01T06:24:43;7.60;;;3.83;;
30519;SDS011;17300;50.374;8.006;2023-02-01T06:27:11;8.30;;;3.70;;
30519;SDS011;17300;50.374;8.006;2023-02-01T06:29:38;5.13;;;2.60;;
30519;SDS011;17300;50.374;8.006;2023-02-01T06:32:05;6.03;;;2.70;;
30519;SDS011;17300;50.374;8.006;2023-02-01T06:34:31;5.23;;;2.30;;
30519;SDS011;17300;50.374;8.006;2023-02-01T06:36:58;6.93;;;2.53;;
30519;SDS011;17300;50.374;8.006;2023-02-01T06:39:25;6.17;;;2.07;;
30519;SDS011;17300;50.374;8.006;2023-02-01T06:41:52;5.63;;;2.47;;
30519;SDS011;17300;50.374;8.006;2023-02-01T06:44:20;4.57;;;2.10;;
30519;SDS011;17300;50.374;8.006;2023-02-01T06:46:47;6.63;;;2.17;;
30519;SDS011;17300;50.374;8.006;2023-02-01T06:49:13;5.43;;;1.73;;
30519;SDS011;17300;50.374;8.006;2023-02-01T06:51:40;4.70;;;2.03;;
30519;SDS011;17300;50.374;8.006;2023-02-01T06:54:07;6.03;;;1.90;;
30519;SDS011;17300;50.374;8.006;2023-02-01T06:56:33;5.10;;;2.10;;
30519;SDS011;17300;50.374;8.006;2023-02-01T06:59:02;6.30;;;2.37;;
30519;SDS011;17300;50.374;8.006;2023-02-01T07:01:31;6.37;;;2.30;;
30519;SDS011;17300;50.374;8.006;2023-02-01T07:03:58;5.40;;;1.87;;
30519;SDS011;17300;50.374;8.006;2023-02-01T07:06:24;3.83;;;2.27;;
30519;SDS011;17300;50.374;8.006;2023-02-01T07:08:51;4.97;;;1.60;;
30519;SDS011;17300;50.374;8.006;2023-02-01T07:11:20;4.53;;;2.30;;
30519;SDS011;17300;50.374;8.006;2023-02-01T07:13:47;5.83;;;2.73;;
30519;SDS011;17300;50.374;8.006;2023-02-01T07:16:15;6.13;;;3.10;;
30519;SDS011;17300;50.374;8.006;2023-02-01T07:18:45;8.20;;;2.63;;
30519;SDS011;17300;50.374;8.006;2023-02-01T07:21:13;5.20;;;2.13;;
30519;SDS011;17300;50.374;8.006;2023-02-01T07:23:39;5.80;;;2.17;;
30519;SDS011;17300;50.374;8.006;2023-02-01T07:26:07;6.63;;;2.30;;
30519;SDS011;17300;50.374;8.006;2023-02-01T07:28:35;5.53;;;2.17;;
30519;SDS011;17300;50.374;8.006;2023-02-01T07:31:03;5.47;;;2.10;;
30519;SDS011;17300;50.374;8.006;2023-02-01T07:33:29;3.83;;;1.80;;
30519;SDS011;17300;50.374;8.006;2023-02-01T07:35:59;5.73;;;1.83;;
30519;SDS011;17300;50.374;8.006;2023-02-01T07:38:27;4.90;;;1.97;;
30519;SDS011;17300;50.374;8.006;2023-02-01T07:40:56;4.50;;;2.10;;
30519;SDS011;17300;50.374;8.006;2023-02-01T07:43:24;3.23;;;1.80;;
30519;SDS011;17300;50.374;8.006;2023-02-01T07:45:51;4.13;;;1.57;;
30519;SDS011;17300;50.374;8.006;2023-02-01T07:48:18;6.03;;;2.20;;
30519;SDS011;17300;50.374;8.006;2023-02-01T07:50:45;6.47;;;1.90;;
30519;SDS011;17300;50.374;8.006;2023-02-01T07:53:13;4.40;;;1.83;;
30519;SDS011;17300;50.374;8.006;2023-02-01T07:55:40;3.37;;;1.93;;
30519;SDS011;17300;50.374;8.006;2023-02-01T07:58:07;6.97;;;2.23;;
30519;SDS011;17300;50.374;8.006;2023-02-01T08:00:33;6.27;;;2.50;;
30519;SDS011;17300;50.374;8.006;2023-02-01T08:03:17;6.77;;;2.80;;
30519;SDS011;17300;50.374;8.006;2023-02-01T08:05:44;7.33;;;2.40;;
30519;SDS011;17300;50.374;8.006;2023-02-01T08:08:12;7.20;;;2.60;;
30519;SDS011;17300;50.374;8.006;2023-02-01T08:10:39;5.37;;;2.10;;
30519;SDS011;17300;50.374;8.006;2023-02-01T08:13:05;6.37;;;2.50;;
30519;SDS011;17300;50.374;8.006;2023-02-01T08:15:32;5.57;;;2.10;;
30519;SDS011;17300;50.374;8.006;2023-02-01T08:17:59;4.53;;;1.90;;
30519;SDS011;17300;50.374;8.006;2023-02-01T08:20:27;3.67;;;1.70;;
30519;SDS011;17300;50.374;8.006;2023-02-01T08:22:54;4.07;;;2.07;;
30519;SDS011;17300;50.374;8.006;2023-02-01T08:25:22;3.60;;;1.83;;
30519;SDS011;17300;50.374;8.006;2023-02-01T08:27:49;6.47;;;2.00;;
30519;SDS011;17300;50.374;8.006;2023-02-01T08:30:16;6.10;;;2.07;;
30519;SDS011;17300;50.374;8.006;2023-02-01T08:32:43;4.87;;;1.97;;
30519;SDS011;17300;50.374;8.006;2023-02-01T08:35:10;4.23;;;1.93;;
30519;SDS011;17300;50.374;8.006;2023-02-01T08:37:37;5.77;;;1.90;;
30519;SDS011;17300;50.374;8.006;2023-02-01T08:40:04;5.07;;;1.80;;
30519;SDS011;17300;50.374;8.006;2023-02-01T08:42:32;4.20;;;1.67;;
30519;SDS011;17300;50.374;8.006;2023-02-01T08:45:17;5.37;;;1.60;;
30519;SDS011;17300;50.374;8.006;2023-02-01T08:47:45;3.53;;;1.80;;
30519;SDS011;17300;50.374;8.006;2023-02-01T08:50:12;5.27;;;1.97;;
30519;SDS011;17300;50.374;8.006;2023-02-01T08:52:39;4.83;;;1.83;;
30519;SDS011;17300;50.374;8.006;2023-02-01T08:55:06;4.33;;;2.20;;
30519;SDS011;17300;50.374;8.006;2023-02-01T08:57:35;4.57;;;1.80;;
30519;SDS011;17300;50.374;8.006;2023-02-01T09:00:03;4.97;;;1.90;;
30519;SDS011;17300;50.374;8.006;2023-02-01T09:02:30;4.80;;;1.70;;
30519;SDS011;17300;50.374;8.006;2023-02-01T09:04:57;5.43;;;2.13;;
30519;SDS011;17300;50.374;8.006;2023-02-01T09:07:24;5.57;;;1.90;;
30519;SDS011;17300;50.374;8.006;2023-02-01T09:09:51;4.67;;;1.67;;
30519;SDS011;17300;50.374;8.006;2023-02-01T09:12:19;4.10;;;2.17;;
30519;SDS011;17300;50.374;8.006;2023-02-01T09:14:47;6.13;;;2.03;;
30519;SDS011;17300;50.374;8.006;2023-02-01T09:17:14;5.00;;;2.30;;
30519;SDS011;17300;50.374;8.006;2023-02-01T09:19:40;5.60;;;2.67;;
30519;SDS011;17300;50.374;8.006;2023-02-01T09:22:07;6.73;;;2.27;;
30519;SDS011;17300;50.374;8.006;2023-02-01T09:24:34;3.73;;;2.00;;
30519;SDS011;17300;50.374;8.006;2023-02-01T09:27:00;4.17;;;1.80;;
30519;SDS011;17300;50.374;8.006;2023-02-01T09:29:27;4.73;;;1.90;;
30519;SDS011;17300;50.374;8.006;2023-02-01T09:31:55;2.90;;;1.60;;
30519;SDS011;17300;50.374;8.006;2023-02-01T09:34:22;4.93;;;2.10;;
30519;SDS011;17300;50.374;8.006;2023-02-01T09:36:49;5.80;;;2.13;;
30519;SDS011;17300;50.374;8.006;2023-02-01T09:39:15;4.80;;;1.73;;
30519;SDS011;17300;50.374;8.006;2023-02-01T09:41:45;4.20;;;1.87;;
30519;SDS011;17300;50.374;8.006;2023-02-01T09:44:23;4.90;;;1.93;;
30519;SDS011;17300;50.374;8.006;2023-02-01T09:47:00;3.43;;;1.73;;
30519;SDS011;17300;50.374;8.006;2023-02-01T09:49:27;4.43;;;1.80;;
30519;SDS011;17300;50.374;8.006;2023-02-01T09:51:56;5.17;;;1.80;;
30519;SDS011;17300;50.374;8.006;2023-02-01T09:54:25;5.77;;;2.20;;
30519;SDS011;17300;50.374;8.006;2023-02-01T09:56:54;4.83;;;1.93;;
30519;SDS011;17300;50.374;8.006;2023-02-01T09:59:29;4.53;;;2.23;;
30519;SDS011;17300;50.374;8.006;2023-02-01T10:02:02;3.83;;;1.93;;
30519;SDS011;17300;50.374;8.006;2023-02-01T10:04:31;4.73;;;1.90;;
30519;SDS011;17300;50.374;8.006;2023-02-01T10:07:04;3.77;;;1.73;;
30519;SDS011;17300;50.374;8.006;2023-02-01T10:09:46;3.17;;;1.57;;
30519;SDS011;17300;50.374;8.006;2023-02-01T10:15:23;4.23;;;2.00;;
30519;SDS011;17300;50.374;8.006;2023-02-01T10:18:03;4.63;;;1.60;;
30519;SDS011;17300;50.374;8.006;2023-02-01T10:20:52;2.93;;;1.63;;
30519;SDS011;17300;50.374;8.006;2023-02-01T10:23:37;3.90;;;1.70;;
30519;SDS011;17300;50.374;8.006;2023-02-01T10:26:17;4.13;;;2.23;;
30519;SDS011;17300;50.374;8.006;2023-02-01T10:28:46;7.40;;;2.17;;
30519;SDS011;17300;50.374;8.006;2023-02-01T10:31:16;5.43;;;2.00;;
30519;SDS011;17300;50.374;8.006;2023-02-01T10:33:45;5.03;;;2.13;;
30519;SDS011;17300;50.374;8.006;2023-02-01T10:36:15;5.33;;;1.60;;
30519;SDS011;17300;50.374;8.006;2023-02-01T10:38:45;5.27;;;1.70;;
30519;SDS011;17300;50.374;8.006;2023-02-01T10:41:13;4.17;;;1.60;;
30519;SDS011;17300;50.374;8.006;2023-02-01T10:43:43;4.20;;;1.83;;
30519;SDS011;17300;50.374;8.006;2023-02-01T10:46:13;4.17;;;2.23;;
30519;SDS011;17300;50.374;8.006;2023-02-01T10:48:40;3.33;;;1.83;;
30519;SDS011;17300;50.374;8.006;2023-02-01T10:51:12;4.53;;;1.83;;
30519;SDS011;17300;50.374;8.006;2023-02-01T10:53:46;2.87;;;1.70;;
30519;SDS011;17300;50.374;8.006;2023-02-01T10:56:21;3.20;;;1.67;;
30519;SDS011;17300;50.374;8.006;2023-02-01T10:58:49;3.17;;;1.40;;
30519;SDS011;17300;50.374;8.006;2023-02-01T11:01:17;5.27;;;2.10;;
30519;SDS011;17300;50.374;8.006;2023-02-01T11:03:51;3.53;;;1.50;;
30519;SDS011;17300;50.374;8.006;2023-02-01T11:06:24;2.67;;;1.60;;
30519;SDS011;17300;50.374;8.006;2023-02-01T11:08:54;4.03;;;2.03;;
30519;SDS011;17300;50.374;8.006;2023-02-01T11:11:22;5.00;;;2.10;;
30519;SDS011;17300;50.374;8.006;2023-02-01T11:13:53;3.53;;;1.80;;
30519;SDS011;17300;50.374;8.006;2023-02-01T11:16:21;4.83;;;1.33;;
30519;SDS011;17300;50.374;8.006;2023-02-01T11:18:56;3.00;;;1.33;;
30519;SDS011;17300;50.374;8.006;2023-02-01T11:21:26;3.23;;;1.60;;
30519;SDS011;17300;50.374;8.006;2023-02-01T11:23:53;5.07;;;1.93;;
30519;SDS011;17300;50.374;8.006;2023-02-01T11:26:21;4.17;;;1.80;;
30519;SDS011;17300;50.374;8.006;2023-02-01T11:28:54;3.73;;;1.60;;
30519;SDS011;17300;50.374;8.006;2023-02-01T11:31:24;2.77;;;1.73;;
30519;SDS011;17300;50.374;8.006;2023-02-01T11:33:53;4.43;;;1.70;;
30519;SDS011;17300;50.374;8.006;2023-02-01T11:36:26;3.90;;;1.40;;
30519;SDS011;17300;50.374;8.006;2023-02-01T11:39:07;5.00;;;2.10;;
30519;SDS011;17300;50.374;8.006;2023-02-01T11:41:43;5.53;;;1.90;;
30519;SDS011;17300;50.374;8.006;2023-02-01T11:44:30;4.30;;;1.73;;
30519;SDS011;17300;50.374;8.006;2023-02-01T11:47:16;3.50;;;1.70;;
30519;SDS011;17300;50.374;8.006;2023-02-01T11:49:49;3.97;;;1.60;;
30519;SDS011;17300;50.374;8.006;2023-02-01T11:52:24;3.37;;;1.60;;
30519;SDS011;17300;50.374;8.006;2023-02-01T11:58:05;5.20;;;1.87;;
30519;SDS011;17300;50.374;8.006;2023-02-01T12:00:47;3.67;;;1.83;;
30519;SDS011;17300;50.374;8.006;2023-02-01T12:03:30;4.93;;;1.83;;
30519;SDS011;17300;50.374;8.006;2023-02-01T12:06:13;3.90;;;1.67;;
30519;SDS011;17300;50.374;8.006;2023-02-01T12:08:55;3.43;;;1.93;;
30519;SDS011;17300;50.374;8.006;2023-02-01T12:11:38;3.47;;;1.50;;
30519;SDS011;17300;50.374;8.006;2023-02-01T12:14:17;5.57;;;2.13;;
30519;SDS011;17300;50.374;8.006;2023-02-01T12:17:06;4.50;;;1.90;;
30519;SDS011;17300;50.374;8.006;2023-02-01T12:20:02;4.30;;;2.23;;
30519;SDS011;17300;50.374;8.006;2023-02-01T12:22:41;4.67;;;2.00;;
30519;SDS011;17300;50.374;8.006;2023-02-01T12:25:22;4.77;;;1.77;;
30519;SDS011;17300;50.374;8.006;2023-02-01T12:28:19;3.80;;;1.70;;
30519;SDS011;17300;50.374;8.006;2023-02-01T12:31:01;3.47;;;1.73;;
30519;SDS011;17300;50.374;8.006;2023-02-01T12:33:49;4.30;;;2.17;;
30519;SDS011;17300;50.374;8.006;2023-02-01T12:36:28;4.43;;;1.80;;
30519;SDS011;17300;50.374;8.006;2023-02-01T12:39:02;3.70;;;1.70;;
30519;SDS011;17300;50.374;8.006;2023-02-01T12:41:48;3.17;;;1.47;;
30519;SDS011;17300;50.374;8.006;2023-02-01T12:44:26;6.43;;;2.00;;
30519;SDS011;17300;50.374;8.006;2023-02-01T12:46:57;5.37;;;2.30;;
30519;SDS011;17300;50.374;8.006;2023-02-01T12:49:28;3.17;;;1.77;;
30519;SDS011;17300;50.374;8.006;2023-02-01T12:52:27;3.20;;;1.73;;
30519;SDS011;17300;50.374;8.006;2023-02-01T12:55:02;2.57;;;1.53;;
30519;SDS011;17300;50.374;8.006;2023-02-01T12:57:36;6.10;;;1.63;;
30519;SDS011;17300;50.374;8.006;2023-02-01T13:00:07;2.83;;;1.60;;
30519;SDS011;17300;50.374;8.006;2023-02-01T13:02:41;4.53;;;2.03;;
30519;SDS011;17300;50.374;8.006;2023-02-01T13:05:12;3.97;;;1.87;;
30519;SDS011;17300;50.374;8.006;2023-02-01T13:07:43;4.60;;;1.60;;
30519;SDS011;17300;50.374;8.006;2023-02-01T13:10:16;3.23;;;1.60;;
30519;SDS011;17300;50.374;8.006;2023-02-01T13:12:51;2.77;;;1.50;;
30519;SDS011;17300;50.374;8.006;2023-02-01T13:15:26;4.37;;;1.60;;
30519;SDS011;17300;50.374;8.006;2023-02-01T13:17:57;2.87;;;1.43;;
30519;SDS011;17300;50.374;8.006;2023-02-01T13:20:29;3.40;;;1.50;;
30519;SDS011;17300;50.374;8.006;2023-02-01T13:22:59;3.63;;;1.63;;
30519;SDS011;17300;50.374;8.006;2023-02-01T13:25:35;5.17;;;1.70;;
30519;SDS011;17300;50.374;8.006;2023-02-01T13:28:11;2.80;;;1.60;;
30519;SDS011;17300;50.374;8.006;2023-02-01T13:30:54;2.70;;;1.37;;
30519;SDS011;17300;50.374;8.006;2023-02-01T13:33:37;3.33;;;1.50;;
30519;SDS011;17300;50.374;8.006;2023-02-01T13:36:17;3.63;;;1.53;;
30519;SDS011;17300;50.374;8.006;2023-02-01T13:39:38;5.67;;;1.77;;
30519;SDS011;17300;50.374;8.006;2023-02-01T13:42:25;4.73;;;1.87;;
30519;SDS011;17300;50.374;8.006;2023-02-01T13:44:57;5.63;;;1.90;;
30519;SDS011;17300;50.374;8.006;2023-02-01T13:47:28;4.17;;;1.90;;
30519;SDS011;17300;50.374;8.006;2023-02-01T13:49:58;3.70;;;1.50;;
30519;SDS011;17300;50.374;8.006;2023-02-01T13:52:36;3.17;;;1.40;;
30519;SDS011;17300;50.374;8.006;2023-02-01T13:55:16;4.27;;;1.70;;
30519;SDS011;17300;50.374;8.006;2023-02-01T13:57:52;3.27;;;1.60;;
30519;SDS011;17300;50.374;8.006;2023-02-01T14:00:29;3.80;;;1.47;;
30519;SDS011;17300;50.374;8.006;2023-02-01T14:05:57;3.40;;;1.30;;
30519;SDS011;17300;50.374;8.006;2023-02-01T14:08:39;3.77;;;1.40;;
30519;SDS011;17300;50.374;8.006;2023-02-01T14:11:31;2.60;;;1.50;;
30519;SDS011;17300;50.374;8.006;2023-02-01T14:23:20;4.07;;;1.40;;
30519;SDS011;17300;50.374;8.006;2023-02-01T14:28:43;3.47;;;1.53;;
30519;SDS011;17300;50.374;8.006;2023-02-01T14:31:30;3.10;;;1.93;;
30519;SDS011;17300;50.374;8.006;2023-02-01T14:34:10;3.67;;;1.30;;
30519;SDS011;17300;50.374;8.006;2023-02-01T14:36:44;3.60;;;1.50;;
30519;SDS011;17300;50.374;8.006;2023-02-01T14:39:33;4.00;;;1.77;;
30519;SDS011;17300;50.374;8.006;2023-02-01T14:42:18;4.70;;;2.03;;
30519;SDS011;17300;50.374;8.006;2023-02-01T14:44:48;4.60;;;2.40;;
30519;SDS011;17300;50.374;8.006;2023-02-01T14:50:02;6.63;;;2.93;;
30519;SDS011;17300;50.374;8.006;2023-02-01T14:52:43;4.37;;;2.33;;
30519;SDS011;17300;50.374;8.006;2023-02-01T14:55:13;3.83;;;1.80;;
30519;SDS011;17300;50.374;8.006;2023-02-01T14:57:43;3.87;;;1.70;;
30519;SDS011;17300;50.374;8.006;2023-02-01T15:00:16;3.90;;;1.60;;
30519;SDS011;17300;50.374;8.006;2023-02-01T15:02:49;3.20;;;1.43;;
30519;SDS011;17300;50.374;8.006;2023-02-01T15:08:07;4.37;;;2.00;;
30519;SDS011;17300;50.374;8.006;2023-02-01T15:10:42;3.33;;;1.60;;
30519;SDS011;17300;50.374;8.006;2023-02-01T15:13:19;3.60;;;1.70;;
30519;SDS011;17300;50.374;8.006;2023-02-01T15:16:03;1.97;;;1.23;;
30519;SDS011;17300;50.374;8.006;2023-02-01T15:18:36;3.87;;;1.67;;
30519;SDS011;17300;50.374;8.006;2023-02-01T15:21:04;2.33;;;1.13;;
30519;SDS011;17300;50.374;8.006;2023-02-01T15:23:32;3.63;;;1.60;;
30519;SDS011;17300;50.374;8.006;2023-02-01T15:25:59;3.60;;;1.27;;
30519;SDS011;17300;50.374;8.006;2023-02-01T15:28:26;4.27;;;1.47;;
30519;SDS011;17300;50.374;8.006;2023-02-01T15:30:56;3.57;;;1.40;;
30519;SDS011;17300;50.374;8.006;2023-02-01T15:33:25;3.97;;;1.57;;
30519;SDS011;17300;50.374;8.006;2023-02-01T15:36:06;2.97;;;2.30;;
30519;SDS011;17300;50.374;8.006;2023-02-01T15:38:38;6.30;;;3.97;;
30519;SDS011;17300;50.374;8.006;2023-02-01T15:41:06;7.70;;;4.87;;
30519;SDS011;17300;50.374;8.006;2023-02-01T15:43:36;8.27;;;5.00;;
30519;SDS011;17300;50.374;8.006;2023-02-01T15:46:10;5.33;;;3.50;;
30519;SDS011;17300;50.374;8.006;2023-02-01T15:48:41;6.03;;;3.40;;